• Join FlightAware (Why Join?)
  • Login
  • US Flag 
11:01PM EDT


 

Airport Tracker/Info


-or-


 

Live Flight TrackerFlight Track Log ✈ FDY2405 ✈ 06-Oct-2013 ✈ KVCT - KIAH

Flight Track Log - Related Links

Times and Time Zones

All times are in EDT time to prevent confusion due to time zone crossing. See the FDY2405 flight status page for this flight to view local times or setup timezone preferences in your user account.

Time Position Orientation Groundspeed Altitude Reporting Facility
EDT Latitude Longitude Course Direction KTS MPH feet Rate Location/Type
03:07PM 28.8731 -96.9439 44° Northeast 113 130 900  Level Houston Center
03:08PM 28.8950 -96.9214 42° Northeast 113 130 1,800 660 Climbing Houston Center
03:09PM 28.9108 -96.8878 62° Northeast 116 133 2,300 540 Climbing Houston Center
03:10PM 28.9264 -96.8531 63° Northeast 120 138 3,000 660 Climbing Houston Center
03:11PM 28.9469 -96.8203 54° Northeast 124 143 3,700 720 Climbing Houston Center
03:12PM 28.9733 -96.7847 50° Northeast 123 142 4,500 600 Climbing Houston Center
03:13PM 29.0089 -96.7042 44° Northeast  Level Estimated
03:13PM 28.9939 -96.7539 53° Northeast 123 142 5,000  Level Houston Center
03:14PM 29.0206 -96.7222 46° Northeast 134 154 5,100  Climbing Houston Center
03:15PM 29.0492 -96.6881 46° Northeast 145 167 5,000 -60 Descending Houston Center
03:16PM 29.0800 -96.6586 40° Northeast 146 168 5,000  Level Houston Center
03:18PM 29.1086 -96.6239 47° Northeast 148 170 5,000  Level Houston Center
03:19PM 29.1414 -96.5844 46° Northeast 145 167 5,000  Level Houston Center
03:20PM 29.1719 -96.5522 43° Northeast 148 170 5,000  Level Houston Center
03:21PM 29.2008 -96.5175 46° Northeast 151 174 5,000  Level Houston Center
03:22PM 29.2325 -96.4889 38° Northeast 147 169 5,000  Level Houston Center
03:23PM 29.2644 -96.4608 37° Northeast 145 167 5,000  Level Houston Center
03:24PM 29.3011 -96.4242 41° Northeast 146 168 5,000  Level Houston Center
03:25PM 29.3303 -96.3942 42° Northeast 143 165 5,100 60 Climbing Houston Center
03:25PM 29.3339 -96.3914 34° Northeast 140 161 5,100  Level Houston Center
03:26PM 29.3603 -96.3642 42° Northeast 143 165 5,100 -120 Level Houston Center
03:26PM 29.3842 -96.3406 41° Northeast 147 169 5,000 -120 Descending Houston Center
03:27PM 29.3911 -96.3339 40° Northeast 145 167 5,000  Level Houston Center
03:27PM 29.4106 -96.3064 51° Northeast 142 163 5,000  Level Houston Center
03:28PM 29.4208 -96.3019 21° North 147 169 5,000  Level Houston Center
03:28PM 29.4419 -96.2789 44° Northeast 153 176 5,000  Level Houston Center
03:29PM 29.4508 -96.2694 43° Northeast 148 170 5,000 60 Level Houston Center
03:30PM 29.4767 -96.2439 41° Northeast 147 169 5,100  Climbing Houston Center
03:30PM 29.4872 -96.2331 42° Northeast 146 168 5,000 -120 Descending Houston Center
03:31PM 29.5075 -96.2117 43° Northeast 150 173 5,000  Level Houston Center
03:31PM 29.5172 -96.2014 43° Northeast 146 168 5,000  Level Houston Center
03:32PM 29.5403 -96.1792 40° Northeast 153 176 5,000  Level Houston Center
03:32PM 29.5475 -96.1692 50° Northeast 148 170 5,000 60 Level Houston Center
03:33PM 29.5625 -96.1431 57° Northeast 146 168 5,100 60 Climbing Houston Center
03:33PM 29.5708 -96.1303 53° Northeast 149 171 5,100 -120 Level Houston Center
03:34PM 29.5858 -96.0972 62° Northeast 152 175 5,000 -120 Descending Houston Center
03:34PM 29.5908 -96.0878 59° Northeast 150 173 5,000  Level Houston Center
03:35PM 29.6092 -96.0514 60° Northeast 154 177 5,000 60 Level Houston Center
03:35PM 29.6111 -96.0450 71° East 151 174 5,100 120 Climbing Houston Center
03:36PM 29.6250 -96.0161 61° Northeast 152 175 5,100 -120 Level Houston Center
03:36PM 29.6339 -95.9967 62° Northeast 151 174 5,000  Descending Houston Center
03:37PM 29.6458 -95.9681 64° Northeast 152 175 5,100 60 Climbing Houston Center
03:37PM 29.6536 -95.9536 58° Northeast 151 174 5,100  Level Houston Center
03:38PM 29.6672 -95.9247 62° Northeast 150 173 5,100  Level Houston Center
03:38PM 29.6733 -95.9106 64° Northeast 152 175 5,100  Level Houston Center
03:39PM 29.6886 -95.8789 61° Northeast 154 177 5,100  Level Houston Center
03:39PM 29.6931 -95.8675 66° East 152 175 5,100  Level Houston Center
03:40PM 29.7086 -95.8456 51° Northeast 147 169 5,100 -240 Level Houston Center
03:40PM 29.7175 -95.8278 60° Northeast 152 175 4,900 -480 Descending Houston Center
03:41PM 29.7333 -95.7919 63° Northeast 169 194 4,600 -540 Descending Houston Center
03:41PM 29.7411 -95.7703 68° East 163 188 4,400 -540 Descending Houston Center
03:42PM 29.7475 -95.7400 76° East 183 211 4,100 -540 Descending Houston Center
03:42PM 29.7450 -95.7128 96° East 186 214 3,900 -540 Descending Houston Center
03:43PM 29.7464 -95.6775 87° East 192 221 3,600 -540 Descending Houston Center
03:43PM 29.7450 -95.6506 93° East 194 223 3,400 -540 Descending Houston Center
03:44PM 29.7453 -95.6200 89° East 193 222 3,100 -300 Descending Houston Center
03:44PM 29.7447 -95.5906 91° East 190 219 3,100  Level Houston Center
03:45PM 29.7442 -95.5600 91° East 182 209 3,100 -120 Level Houston Center
03:45PM 29.7475 -95.5336 82° East 185 213 3,000  Descending Houston Center
03:46PM 29.7519 -95.5061 79° East 172 198 3,100 60 Climbing Houston Center
03:46PM 29.7544 -95.4789 84° East 178 205 3,100 -120 Level Houston Center
03:47PM 29.7594 -95.4497 79° East 164 189 3,000 -120 Descending Houston Center
03:47PM 29.7619 -95.4269 83° East 171 197 3,000 -120 Level Houston Center
03:48PM 29.7694 -95.3981 73° East 168 193 2,900 -420 Descending Houston Center
03:48PM 29.7786 -95.3650 72° East 169 194 2,600 -420 Descending Houston Center
03:49PM 29.7833 -95.3433 76° East 186 214 2,500 -420 Descending Houston Center
03:50PM 29.7931 -95.3078 73° East 177 204 2,200 -540 Descending Houston Center
03:50PM 29.7989 -95.2861 73° East 183 211 2,000 -120 Descending Houston Center
03:51PM 29.8083 -95.2522 72° East 180 207 2,100 60 Climbing Houston Center
03:51PM 29.8147 -95.2289 72° East 173 199 2,100 -120 Level Houston Center
03:52PM 29.8231 -95.1994 72° East 176 203 2,000  Descending Houston Center
03:52PM 29.8358 -95.1853 44° Northeast 151 174 2,100 60 Climbing Houston Center
03:53PM 29.8742 -95.1686 21° North 159 183 2,100  Level Houston Center
03:54PM 29.8997 -95.1631 11° North 158 182 2,100 -120 Level Houston Center
03:54PM 29.9158 -95.1658 352° North 159 183 2,000 -120 Descending Houston Center
03:55PM 29.9333 -95.1792 327° Northwest 152 175 2,000 -120 Level Houston Center
03:55PM 29.9431 -95.1867 326° Northwest 123 142 1,900 -420 Descending Houston Center
03:56PM 29.9644 -95.2061 322° Northwest 130 150 1,600 -540 Descending Houston Center
03:56PM 29.9692 -95.2197 292° West 118 136 1,300 -540 Descending Houston Center
03:57PM 29.9775 -95.2417 294° West 123 142 1,100 -300 Descending Houston Center
03:57PM 29.9769 -95.2572 268° West 133 153 1,000 -600 Descending Houston Center
03:58PM 29.9775 -95.2822 271° West 123 142 500 -360 Descending Houston Center
03:59PM 29.9775 -95.3219 270° West 124 143 400 -120 Descending Houston Center